createdAt,value
2019-05-23T04:52:11.647Z,20.20
2019-05-23T04:54:41.095Z,20.20
2019-05-23T04:57:10.840Z,20.20
2019-05-23T04:59:53.384Z,20.30
2019-05-23T05:02:26.951Z,20.30
2019-05-23T05:04:54.772Z,20.40
2019-05-23T05:07:27.855Z,20.40
2019-05-23T05:09:56.752Z,20.60
2019-05-23T05:12:28.411Z,20.70
2019-05-23T05:14:58.230Z,20.70
2019-05-23T05:17:27.334Z,20.80
2019-05-23T05:19:57.195Z,20.90
2019-05-23T05:22:28.829Z,20.90
2019-05-23T05:24:57.539Z,20.80
2019-05-23T05:27:29.704Z,20.60
2019-05-23T05:30:02.754Z,20.40
2019-05-23T05:32:44.991Z,20.40
2019-05-23T05:35:09.069Z,20.30
2019-05-23T05:37:39.233Z,20.40
2019-05-23T05:40:09.361Z,20.60
2019-05-23T05:42:41.726Z,20.70
2019-05-23T05:45:10.663Z,20.80
2019-05-23T05:47:40.569Z,20.80
2019-05-23T05:50:13.392Z,20.70
2019-05-23T05:52:44.082Z,20.80
2019-05-23T05:55:14.205Z,20.90
2019-05-23T05:57:43.593Z,21.00
2019-05-23T06:00:29.288Z,21.10
2019-05-23T06:03:04.648Z,21.10
2019-05-23T06:05:43.954Z,21.10
2019-05-23T06:08:14.300Z,21.10
2019-05-23T06:10:43.497Z,21.20
2019-05-23T06:13:12.335Z,21.10
2019-05-23T06:15:42.428Z,20.90
2019-05-23T06:18:12.862Z,20.80
2019-05-23T06:20:45.494Z,20.70
2019-05-23T06:23:16.317Z,20.60
2019-05-23T06:25:46.086Z,20.70
2019-05-23T06:28:18.913Z,21.00
2019-05-23T06:30:48.559Z,21.10
2019-05-23T06:33:23.144Z,21.40
2019-05-23T06:35:51.706Z,21.70
2019-05-23T06:38:21.365Z,22.10
2019-05-23T06:40:51.923Z,22.40
2019-05-23T06:43:23.541Z,22.70
2019-05-23T06:45:53.043Z,23.00
2019-05-23T06:48:22.142Z,23.20
2019-05-23T06:50:50.964Z,23.60
2019-05-23T06:53:20.300Z,23.60
2019-05-23T06:55:50.569Z,23.60
2019-05-23T06:58:21.222Z,23.60
2019-05-23T07:00:50.969Z,23.50
2019-05-23T07:04:11.619Z,23.40
2019-05-23T07:09:42.894Z,23.10
2019-05-23T07:12:13.000Z,23.20
2019-05-23T07:14:42.882Z,23.40
2019-05-23T07:29:50.070Z,24.00
2019-05-23T07:32:43.033Z,23.90
2019-05-23T07:38:24.158Z,24.00
2019-05-23T07:40:56.587Z,23.80
2019-05-23T07:43:27.917Z,23.70
2019-05-23T07:46:19.874Z,23.80
2019-05-23T07:50:14.768Z,23.80
2019-05-23T08:11:12.169Z,25.10
2019-05-23T08:36:59.037Z,25.40
2019-05-23T10:40:19.312Z,31.20
2019-05-23T10:43:15.805Z,31.60
2019-05-23T10:45:51.735Z,31.70
2019-05-23T10:49:00.782Z,31.80
2019-05-23T10:51:44.590Z,32.20
2019-05-23T11:22:45.812Z,34.40
2019-05-23T11:44:56.027Z,31.20
2019-05-23T11:47:31.058Z,30.90
2019-05-23T11:49:58.145Z,31.00
2019-05-23T11:52:27.747Z,32.10
2019-05-23T11:54:58.935Z,32.30
2019-05-23T11:57:28.500Z,32.50
2019-05-23T11:59:59.374Z,32.80
2019-05-23T12:02:36.191Z,32.90
2019-05-23T12:05:08.961Z,33.80
2019-05-23T12:07:44.441Z,34.90
2019-05-23T12:10:15.593Z,35.30
2019-05-23T12:12:45.944Z,35.60
2019-05-23T12:15:24.128Z,35.90
2019-05-23T12:17:58.233Z,35.80
2019-05-23T12:20:27.798Z,36.00
2019-05-23T12:22:57.668Z,36.10
2019-05-23T12:25:32.990Z,36.30
2019-05-23T12:28:02.515Z,35.90
2019-05-23T12:30:33.837Z,36.00
2019-05-23T12:33:02.693Z,36.00
2019-05-23T12:35:32.941Z,36.00
2019-05-23T12:38:02.907Z,36.10
2019-05-23T12:40:34.179Z,35.70
2019-05-23T12:43:04.877Z,35.20
2019-05-23T12:45:37.614Z,34.90
2019-05-23T12:48:08.219Z,34.40
2019-05-23T12:50:42.380Z,34.20
2019-05-23T12:53:15.066Z,34.40
2019-05-23T12:55:45.939Z,34.60
2019-05-23T12:58:16.353Z,34.50
2019-05-23T13:00:49.633Z,34.60
2019-05-23T13:03:18.979Z,34.70
2019-05-23T13:05:52.497Z,35.20
2019-05-23T13:08:23.581Z,35.10
2019-05-23T13:10:53.046Z,36.00
2019-05-23T13:13:22.924Z,36.50
2019-05-23T13:15:51.693Z,36.20
2019-05-23T13:18:20.496Z,36.60
2019-05-23T13:20:49.412Z,36.80
2019-05-23T13:23:21.131Z,36.10
2019-05-23T13:25:50.108Z,34.90
2019-05-23T13:28:19.884Z,34.40
2019-05-23T13:30:50.517Z,34.70
2019-05-23T13:33:19.748Z,34.50
2019-05-23T13:35:49.378Z,34.50
2019-05-23T13:38:18.113Z,34.90
2019-05-23T13:40:48.290Z,35.70
2019-05-23T13:43:17.341Z,35.60
2019-05-23T13:45:46.330Z,35.60
2019-05-23T13:48:16.677Z,35.10
2019-05-23T13:50:45.608Z,34.70
2019-05-23T13:53:14.311Z,34.90
2019-05-23T13:55:44.740Z,35.30
2019-05-23T13:58:14.686Z,35.20
2019-05-23T14:00:44.740Z,34.90
2019-05-23T14:03:14.030Z,35.00
2019-05-23T14:05:42.996Z,35.00
2019-05-23T14:08:13.668Z,35.00
2019-05-23T14:10:42.487Z,35.30
2019-05-23T14:13:11.298Z,34.90
2019-05-23T14:15:44.867Z,34.70
2019-05-23T14:18:15.248Z,34.10
2019-05-23T14:20:46.538Z,34.70
2019-05-23T14:23:22.970Z,34.90
2019-05-23T14:25:52.722Z,35.10
2019-05-23T14:28:21.591Z,35.90
2019-05-23T14:31:07.660Z,36.80
2019-05-23T14:33:41.172Z,38.20
2019-05-23T14:36:14.308Z,38.10
2019-05-23T14:38:44.204Z,37.80
2019-05-23T14:41:13.527Z,37.20
2019-05-23T14:43:42.413Z,36.50
2019-05-23T14:46:20.107Z,35.80
2019-05-23T14:48:56.263Z,34.90
2019-05-23T14:51:36.619Z,34.70
2019-05-23T14:54:22.723Z,34.50
2019-05-23T14:56:51.598Z,34.50
2019-05-23T14:59:20.503Z,34.20
2019-05-23T15:01:51.597Z,33.80
2019-05-23T15:04:20.539Z,33.10
2019-05-23T15:06:50.072Z,32.00
2019-05-23T15:09:21.355Z,30.70
2019-05-23T15:11:50.651Z,29.40
2019-05-23T15:14:19.422Z,27.90
2019-05-23T15:16:48.166Z,26.60
2019-05-23T15:19:38.749Z,25.70
2019-05-23T15:21:49.128Z,24.90
2019-05-23T15:24:17.872Z,24.40
2019-05-23T15:26:46.685Z,24.10
2019-05-23T15:29:16.900Z,23.80
2019-05-23T15:32:01.109Z,23.70
2019-05-23T15:34:17.611Z,23.90
2019-05-23T15:36:46.458Z,24.20
2019-05-23T15:39:19.589Z,24.50
2019-05-23T15:41:49.043Z,24.70
2019-05-23T15:44:26.617Z,24.70
2019-05-23T15:46:49.765Z,24.40
2019-05-23T15:49:18.598Z,24.10
2019-05-23T15:51:54.179Z,23.80
2019-05-23T15:54:26.364Z,23.20
2019-05-23T15:57:02.277Z,22.60
2019-05-23T15:59:34.083Z,22.10
2019-05-23T16:02:04.641Z,21.80
2019-05-23T16:04:35.279Z,21.70
2019-05-23T16:07:04.831Z,21.60
2019-05-23T16:09:33.662Z,21.30
2019-05-23T16:12:02.397Z,21.10
2019-05-23T16:14:31.276Z,20.80
2019-05-23T16:17:01.090Z,20.70
2019-05-23T16:19:31.729Z,20.60
2019-05-23T16:22:01.912Z,20.60
2019-05-23T16:24:31.864Z,20.60
2019-05-23T16:27:01.246Z,20.60
2019-05-23T16:29:30.847Z,20.50
2019-05-23T16:31:59.581Z,20.50
2019-05-23T16:34:29.678Z,20.40
2019-05-23T16:36:58.412Z,20.40
2019-05-23T16:39:27.212Z,20.50
2019-05-23T16:41:56.230Z,20.50
2019-05-23T16:44:25.041Z,20.40
2019-05-23T16:46:54.987Z,20.50
2019-05-23T16:49:25.341Z,20.30
2019-05-23T16:51:54.220Z,20.20
2019-05-23T16:54:24.539Z,20.10
2019-05-23T16:57:04.156Z,20.00
2019-05-23T16:59:34.477Z,19.90
2019-05-23T17:02:06.316Z,20.00
2019-05-23T17:04:40.294Z,20.10
2019-05-23T17:07:14.619Z,20.20
2019-05-23T17:10:06.941Z,20.00
2019-05-23T17:12:28.585Z,19.90
2019-05-23T17:15:16.428Z,19.80
2019-05-23T17:18:01.392Z,19.80
2019-05-23T17:20:38.615Z,19.70
2019-05-23T17:23:08.808Z,19.80
2019-05-23T17:25:55.284Z,19.80
2019-05-23T17:28:25.849Z,19.90
2019-05-23T17:30:59.022Z,19.80
2019-05-23T17:33:28.061Z,19.60
2019-05-23T17:35:58.426Z,19.30
2019-05-23T17:38:28.771Z,19.10
2019-05-23T17:40:58.907Z,18.90
2019-05-23T17:43:27.727Z,18.80
2019-05-23T17:45:56.563Z,18.80
2019-05-23T17:48:25.273Z,18.70
2019-05-23T17:50:54.997Z,18.70
2019-05-23T17:53:25.743Z,18.60
2019-05-23T17:55:54.982Z,18.70
2019-05-23T17:58:25.250Z,18.60
2019-05-23T18:00:54.525Z,18.70
2019-05-23T18:03:24.958Z,18.60
2019-05-23T18:05:54.425Z,18.60
2019-05-23T18:08:23.396Z,18.50
2019-05-23T18:10:53.260Z,18.40
2019-05-23T18:13:22.185Z,18.20
2019-05-23T18:15:51.262Z,18.30
2019-05-23T18:18:20.617Z,18.30
2019-05-23T18:20:49.602Z,18.40
2019-05-23T18:23:18.723Z,18.20
2019-05-23T18:25:48.484Z,18.10
2019-05-23T18:28:19.060Z,18.10
2019-05-23T18:30:50.021Z,18.00
2019-05-23T18:33:19.710Z,18.00
2019-05-23T18:36:21.786Z,17.90
2019-05-23T18:38:50.525Z,17.80
2019-05-23T18:41:20.892Z,17.70
2019-05-23T18:43:48.873Z,17.60
2019-05-23T18:46:28.414Z,17.60
2019-05-23T18:48:59.319Z,17.50
2019-05-23T18:51:28.915Z,17.50
2019-05-23T18:53:59.545Z,17.50
2019-05-23T18:56:28.643Z,17.50
2019-05-23T18:58:57.506Z,17.40
2019-05-23T19:01:26.934Z,17.40
2019-05-23T19:03:55.997Z,17.40
2019-05-23T19:06:25.007Z,17.30
2019-05-23T19:08:54.508Z,17.20
